Ramsey, Minnesota
Current Conditions -  °F | °C
As of 8:45 AM on Friday 24 Oct 2014 (Local Time) from KANE Reporting Station
Broken Clouds Broken Clouds  
Wind Chill: 52°   Ceiling: 25000
Heat Index: 52°   Visibility: 10mi
Dew Point: 50°   Wind: 7mph
Humidity: 94%   Direction: 120°ESE
Pressure: 29.88"   Gusts: NA
Location:  45.25°N, 93.41°W
Report Text: KANE 241345Z 12006KT 10SM SCT046 BKN250 11/10 A2988
Loading
Personal Weather Stations






























Interactive Weather Map
Tropical Storm Tracking
New forecast layout! Learn more

10-Day Weather Forecast

Advertisements
Track Severe Weather on mobile